Terminal Aerodrome Forecast
Issued by NWS Cleveland, OH

Home | Current Version | Previous Version | Text Only | Print | Product List | Glossary On
Versions: 1 2 3 4 5 6 7 8 9 10 11 12
000
FTUS41 KCLE 292341
TAFERI
TAF
KERI 292341Z 3000/3024 32010KT P6SM OVC250
     FM300300 25006KT P6SM BKN040 BKN100 BKN250
     FM301500 26012G20KT P6SM SCT250=

USA.gov is the U.S. government's official web portal to all federal, state and local government web resources and services.